Accueil
METAR-TAF:

METAR-TAF

Aéroports :

Dakar, Sénégal

Aéroport international Léopold-Sédar-Senghor

latitude: 14-44N, longitude: 017-30W, altitude: 27 m

Observation

Le bulletin a été fait il y a 1 heure et 4 minutes, à 21:00 UTC
Vent 6 kt de nord/nord-est
Température 20°C
Humidité 73%
Pression 1012 hPa
Visibilité: 4000 m
poussière généralisée

METAR: GOOY 222100Z 02006KT 4000 DU NSC 20/15 Q1012

Heure: 22:04 (22:04 UTC)

Prévision

Le bulletin a été fait il y a 4 heures et 34 minutes, à 17:30 UTC
Prévision valable du 22 à 18 UTC au 23 à 24 UTC
Vent 12 kt de nord-est
Visibilité: 4000 m
poussière généralisée

TAF: GOOY 221730Z 2218/2324 04012KT 4000 DU NSC

Observations et prévisions météorologiques de plus de 4000 aéroports (messages METAR et TAF).

Les stations disponibles sont représentées par des disques jaunes et rouges sur la carte.

Passer la souris dessus pour voir le nom de la station.

Cliquer dessus pour voir les observations et prévisions météorologiques.

Pour changer de carte: cliquez sur les boutons verts avec une croix noire pour zoomer, sur le bouton vert avec un tiret pour effectuer un zoom arrière, ou sur les flèches vertes pour les cartes adjacentes.


METAR-TAF: